sensor_id;sensor_type;location;lat;lon;timestamp;P1;durP1;ratioP1;P2;durP2;ratioP2
12332;SDS011;6232;48.094;11.288;2022-11-09T00:00:54;4.43;;;4.00;;
12332;SDS011;6232;48.094;11.288;2022-11-09T00:03:40;6.20;;;3.80;;
12332;SDS011;6232;48.094;11.288;2022-11-09T00:06:26;6.53;;;4.07;;
12332;SDS011;6232;48.094;11.288;2022-11-09T00:09:12;7.57;;;3.77;;
12332;SDS011;6232;48.094;11.288;2022-11-09T00:11:57;4.23;;;3.87;;
12332;SDS011;6232;48.094;11.288;2022-11-09T00:14:44;7.03;;;4.23;;
12332;SDS011;6232;48.094;11.288;2022-11-09T00:17:30;8.13;;;4.43;;
12332;SDS011;6232;48.094;11.288;2022-11-09T00:20:15;12.70;;;4.60;;
12332;SDS011;6232;48.094;11.288;2022-11-09T00:23:01;5.90;;;4.87;;
12332;SDS011;6232;48.094;11.288;2022-11-09T00:25:46;6.27;;;4.80;;
12332;SDS011;6232;48.094;11.288;2022-11-09T00:28:32;8.80;;;4.37;;
12332;SDS011;6232;48.094;11.288;2022-11-09T00:31:19;10.80;;;4.50;;
12332;SDS011;6232;48.094;11.288;2022-11-09T00:34:04;4.57;;;4.10;;
12332;SDS011;6232;48.094;11.288;2022-11-09T00:36:50;6.17;;;4.67;;
12332;SDS011;6232;48.094;11.288;2022-11-09T00:39:36;6.33;;;4.10;;
12332;SDS011;6232;48.094;11.288;2022-11-09T00:42:21;6.23;;;4.70;;
12332;SDS011;6232;48.094;11.288;2022-11-09T00:45:07;4.40;;;4.00;;
12332;SDS011;6232;48.094;11.288;2022-11-09T00:47:52;4.20;;;3.40;;
12332;SDS011;6232;48.094;11.288;2022-11-09T00:50:38;6.40;;;5.20;;
12332;SDS011;6232;48.094;11.288;2022-11-09T00:53:24;4.47;;;4.03;;
12332;SDS011;6232;48.094;11.288;2022-11-09T00:56:10;6.53;;;4.17;;
12332;SDS011;6232;48.094;11.288;2022-11-09T00:58:56;5.47;;;4.53;;
12332;SDS011;6232;48.094;11.288;2022-11-09T01:01:42;5.47;;;4.60;;
12332;SDS011;6232;48.094;11.288;2022-11-09T01:04:28;6.07;;;4.60;;
12332;SDS011;6232;48.094;11.288;2022-11-09T01:07:13;10.37;;;5.10;;
12332;SDS011;6232;48.094;11.288;2022-11-09T01:09:59;5.60;;;4.07;;
12332;SDS011;6232;48.094;11.288;2022-11-09T01:12:45;4.27;;;3.73;;
12332;SDS011;6232;48.094;11.288;2022-11-09T01:15:30;6.03;;;4.40;;
12332;SDS011;6232;48.094;11.288;2022-11-09T01:18:17;7.20;;;4.30;;
12332;SDS011;6232;48.094;11.288;2022-11-09T01:21:03;4.43;;;4.03;;
12332;SDS011;6232;48.094;11.288;2022-11-09T01:23:49;4.17;;;3.50;;
12332;SDS011;6232;48.094;11.288;2022-11-09T01:26:35;4.33;;;3.50;;
12332;SDS011;6232;48.094;11.288;2022-11-09T01:29:20;5.80;;;4.07;;
12332;SDS011;6232;48.094;11.288;2022-11-09T01:32:06;4.10;;;3.40;;
12332;SDS011;6232;48.094;11.288;2022-11-09T01:34:51;3.40;;;3.10;;
12332;SDS011;6232;48.094;11.288;2022-11-09T01:37:37;3.70;;;3.23;;
12332;SDS011;6232;48.094;11.288;2022-11-09T01:40:23;4.97;;;3.90;;
12332;SDS011;6232;48.094;11.288;2022-11-09T01:43:15;3.30;;;3.00;;
12332;SDS011;6232;48.094;11.288;2022-11-09T01:46:08;5.33;;;3.00;;
12332;SDS011;6232;48.094;11.288;2022-11-09T01:48:57;3.43;;;3.10;;
12332;SDS011;6232;48.094;11.288;2022-11-09T01:51:46;5.00;;;3.37;;
12332;SDS011;6232;48.094;11.288;2022-11-09T01:54:35;2.73;;;2.50;;
12332;SDS011;6232;48.094;11.288;2022-11-09T01:57:24;3.60;;;3.30;;
12332;SDS011;6232;48.094;11.288;2022-11-09T02:00:11;3.70;;;3.40;;
12332;SDS011;6232;48.094;11.288;2022-11-09T02:02:58;3.53;;;3.20;;
12332;SDS011;6232;48.094;11.288;2022-11-09T02:05:45;3.20;;;2.97;;
12332;SDS011;6232;48.094;11.288;2022-11-09T02:08:31;6.00;;;4.10;;
12332;SDS011;6232;48.094;11.288;2022-11-09T02:11:18;4.43;;;3.03;;
12332;SDS011;6232;48.094;11.288;2022-11-09T02:14:04;3.63;;;2.83;;
12332;SDS011;6232;48.094;11.288;2022-11-09T02:16:51;3.17;;;2.70;;
12332;SDS011;6232;48.094;11.288;2022-11-09T02:19:36;2.93;;;2.73;;
12332;SDS011;6232;48.094;11.288;2022-11-09T02:22:22;3.40;;;3.10;;
12332;SDS011;6232;48.094;11.288;2022-11-09T02:25:08;4.80;;;2.80;;
12332;SDS011;6232;48.094;11.288;2022-11-09T02:27:54;2.23;;;2.13;;
12332;SDS011;6232;48.094;11.288;2022-11-09T02:30:40;3.57;;;3.27;;
12332;SDS011;6232;48.094;11.288;2022-11-09T02:33:26;4.00;;;3.00;;
12332;SDS011;6232;48.094;11.288;2022-11-09T02:36:11;2.93;;;2.67;;
12332;SDS011;6232;48.094;11.288;2022-11-09T02:38:57;2.83;;;2.53;;
12332;SDS011;6232;48.094;11.288;2022-11-09T02:41:45;2.73;;;2.40;;
12332;SDS011;6232;48.094;11.288;2022-11-09T02:44:33;3.10;;;2.80;;
12332;SDS011;6232;48.094;11.288;2022-11-09T02:47:20;3.20;;;2.43;;
12332;SDS011;6232;48.094;11.288;2022-11-09T02:50:05;2.40;;;2.27;;
12332;SDS011;6232;48.094;11.288;2022-11-09T02:52:51;3.20;;;2.43;;
12332;SDS011;6232;48.094;11.288;2022-11-09T02:55:37;2.30;;;2.10;;
12332;SDS011;6232;48.094;11.288;2022-11-09T02:58:22;5.83;;;2.77;;
12332;SDS011;6232;48.094;11.288;2022-11-09T03:01:08;2.60;;;2.40;;
12332;SDS011;6232;48.094;11.288;2022-11-09T03:03:53;2.53;;;2.33;;
12332;SDS011;6232;48.094;11.288;2022-11-09T03:06:39;2.37;;;2.23;;
12332;SDS011;6232;48.094;11.288;2022-11-09T03:09:24;2.73;;;2.50;;
12332;SDS011;6232;48.094;11.288;2022-11-09T03:12:10;5.90;;;2.67;;
12332;SDS011;6232;48.094;11.288;2022-11-09T03:15:14;3.33;;;3.00;;
12332;SDS011;6232;48.094;11.288;2022-11-09T03:18:00;3.47;;;2.10;;
12332;SDS011;6232;48.094;11.288;2022-11-09T03:20:45;2.50;;;2.30;;
12332;SDS011;6232;48.094;11.288;2022-11-09T03:23:31;2.63;;;2.43;;
12332;SDS011;6232;48.094;11.288;2022-11-09T03:26:17;2.57;;;2.30;;
12332;SDS011;6232;48.094;11.288;2022-11-09T03:29:02;2.43;;;2.23;;
12332;SDS011;6232;48.094;11.288;2022-11-09T03:31:48;3.80;;;3.13;;
12332;SDS011;6232;48.094;11.288;2022-11-09T03:34:33;2.87;;;2.10;;
12332;SDS011;6232;48.094;11.288;2022-11-09T03:37:19;2.70;;;2.50;;
12332;SDS011;6232;48.094;11.288;2022-11-09T03:40:05;5.30;;;2.70;;
12332;SDS011;6232;48.094;11.288;2022-11-09T03:42:51;2.47;;;2.20;;
12332;SDS011;6232;48.094;11.288;2022-11-09T03:45:36;2.60;;;2.40;;
12332;SDS011;6232;48.094;11.288;2022-11-09T03:48:22;2.60;;;2.40;;
12332;SDS011;6232;48.094;11.288;2022-11-09T03:51:07;2.40;;;2.20;;
12332;SDS011;6232;48.094;11.288;2022-11-09T03:53:53;2.37;;;2.17;;
12332;SDS011;6232;48.094;11.288;2022-11-09T03:56:39;2.53;;;2.33;;
12332;SDS011;6232;48.094;11.288;2022-11-09T03:59:25;2.40;;;2.20;;
12332;SDS011;6232;48.094;11.288;2022-11-09T04:02:11;2.27;;;2.17;;
12332;SDS011;6232;48.094;11.288;2022-11-09T04:04:56;2.13;;;2.03;;
12332;SDS011;6232;48.094;11.288;2022-11-09T04:07:48;2.63;;;2.07;;
12332;SDS011;6232;48.094;11.288;2022-11-09T04:10:34;3.20;;;2.60;;
12332;SDS011;6232;48.094;11.288;2022-11-09T04:13:20;2.20;;;2.03;;
12332;SDS011;6232;48.094;11.288;2022-11-09T04:16:06;2.13;;;2.00;;
12332;SDS011;6232;48.094;11.288;2022-11-09T04:18:51;2.60;;;2.40;;
12332;SDS011;6232;48.094;11.288;2022-11-09T04:21:37;2.50;;;1.97;;
12332;SDS011;6232;48.094;11.288;2022-11-09T04:24:22;2.60;;;2.00;;
12332;SDS011;6232;48.094;11.288;2022-11-09T04:27:08;2.03;;;1.83;;
12332;SDS011;6232;48.094;11.288;2022-11-09T04:29:53;1.70;;;1.53;;
12332;SDS011;6232;48.094;11.288;2022-11-09T04:32:39;3.43;;;2.40;;
12332;SDS011;6232;48.094;11.288;2022-11-09T04:35:25;2.07;;;1.90;;
12332;SDS011;6232;48.094;11.288;2022-11-09T04:38:11;2.60;;;2.37;;
12332;SDS011;6232;48.094;11.288;2022-11-09T04:41:01;2.60;;;2.23;;
12332;SDS011;6232;48.094;11.288;2022-11-09T04:43:47;2.27;;;1.70;;
12332;SDS011;6232;48.094;11.288;2022-11-09T04:46:33;1.70;;;1.60;;
12332;SDS011;6232;48.094;11.288;2022-11-09T04:49:18;1.83;;;1.73;;
12332;SDS011;6232;48.094;11.288;2022-11-09T04:52:04;1.70;;;1.60;;
12332;SDS011;6232;48.094;11.288;2022-11-09T04:54:50;1.80;;;1.70;;
12332;SDS011;6232;48.094;11.288;2022-11-09T04:57:36;3.03;;;1.50;;
12332;SDS011;6232;48.094;11.288;2022-11-09T05:00:21;1.57;;;1.43;;
12332;SDS011;6232;48.094;11.288;2022-11-09T05:03:07;1.70;;;1.60;;
12332;SDS011;6232;48.094;11.288;2022-11-09T05:05:53;2.10;;;1.93;;
12332;SDS011;6232;48.094;11.288;2022-11-09T05:08:38;2.03;;;1.83;;
12332;SDS011;6232;48.094;11.288;2022-11-09T05:11:24;1.90;;;1.63;;
12332;SDS011;6232;48.094;11.288;2022-11-09T05:14:09;3.50;;;1.90;;
12332;SDS011;6232;48.094;11.288;2022-11-09T05:16:55;1.77;;;1.67;;
12332;SDS011;6232;48.094;11.288;2022-11-09T05:19:40;1.87;;;1.77;;
12332;SDS011;6232;48.094;11.288;2022-11-09T05:22:26;1.90;;;1.70;;
12332;SDS011;6232;48.094;11.288;2022-11-09T05:25:30;1.60;;;1.50;;
12332;SDS011;6232;48.094;11.288;2022-11-09T05:28:16;2.03;;;1.93;;
12332;SDS011;6232;48.094;11.288;2022-11-09T05:31:01;2.53;;;1.70;;
12332;SDS011;6232;48.094;11.288;2022-11-09T05:33:48;2.60;;;2.40;;
12332;SDS011;6232;48.094;11.288;2022-11-09T05:36:34;2.67;;;2.47;;
12332;SDS011;6232;48.094;11.288;2022-11-09T05:39:20;4.80;;;3.50;;
12332;SDS011;6232;48.094;11.288;2022-11-09T05:42:05;3.53;;;3.23;;
12332;SDS011;6232;48.094;11.288;2022-11-09T05:44:51;8.83;;;3.33;;
12332;SDS011;6232;48.094;11.288;2022-11-09T05:47:37;3.07;;;2.57;;
12332;SDS011;6232;48.094;11.288;2022-11-09T05:50:23;2.60;;;2.40;;
12332;SDS011;6232;48.094;11.288;2022-11-09T05:53:09;2.40;;;2.20;;
12332;SDS011;6232;48.094;11.288;2022-11-09T05:55:55;5.03;;;2.70;;
12332;SDS011;6232;48.094;11.288;2022-11-09T05:58:45;2.70;;;2.50;;
12332;SDS011;6232;48.094;11.288;2022-11-09T06:01:30;4.80;;;1.80;;
12332;SDS011;6232;48.094;11.288;2022-11-09T06:04:16;2.67;;;2.03;;
12332;SDS011;6232;48.094;11.288;2022-11-09T06:07:01;2.17;;;1.97;;
12332;SDS011;6232;48.094;11.288;2022-11-09T06:09:47;2.80;;;1.97;;
12332;SDS011;6232;48.094;11.288;2022-11-09T06:12:33;1.60;;;1.50;;
12332;SDS011;6232;48.094;11.288;2022-11-09T06:15:18;4.27;;;2.30;;
12332;SDS011;6232;48.094;11.288;2022-11-09T06:18:04;4.20;;;2.50;;
12332;SDS011;6232;48.094;11.288;2022-11-09T06:20:53;2.30;;;1.97;;
12332;SDS011;6232;48.094;11.288;2022-11-09T06:23:39;2.33;;;2.17;;
12332;SDS011;6232;48.094;11.288;2022-11-09T06:26:25;2.70;;;2.27;;
12332;SDS011;6232;48.094;11.288;2022-11-09T06:29:10;2.60;;;2.40;;
12332;SDS011;6232;48.094;11.288;2022-11-09T06:31:56;2.70;;;2.50;;
12332;SDS011;6232;48.094;11.288;2022-11-09T06:34:41;7.23;;;2.73;;
12332;SDS011;6232;48.094;11.288;2022-11-09T06:37:28;9.33;;;2.77;;
12332;SDS011;6232;48.094;11.288;2022-11-09T06:40:17;10.87;;;3.00;;
12332;SDS011;6232;48.094;11.288;2022-11-09T06:43:02;11.63;;;3.23;;
12332;SDS011;6232;48.094;11.288;2022-11-09T06:45:48;6.23;;;3.50;;
12332;SDS011;6232;48.094;11.288;2022-11-09T06:48:34;12.87;;;6.00;;
12332;SDS011;6232;48.094;11.288;2022-11-09T06:51:20;14.47;;;6.43;;
12332;SDS011;6232;48.094;11.288;2022-11-09T06:54:05;10.07;;;6.20;;
12332;SDS011;6232;48.094;11.288;2022-11-09T06:56:52;9.90;;;5.60;;
12332;SDS011;6232;48.094;11.288;2022-11-09T06:59:38;7.67;;;4.33;;
12332;SDS011;6232;48.094;11.288;2022-11-09T07:02:24;2.57;;;2.37;;
12332;SDS011;6232;48.094;11.288;2022-11-09T07:05:09;4.40;;;3.10;;
12332;SDS011;6232;48.094;11.288;2022-11-09T07:07:55;6.03;;;3.50;;
12332;SDS011;6232;48.094;11.288;2022-11-09T07:10:41;19.80;;;5.53;;
12332;SDS011;6232;48.094;11.288;2022-11-09T07:13:27;11.03;;;7.10;;
12332;SDS011;6232;48.094;11.288;2022-11-09T07:16:12;3.37;;;3.07;;
12332;SDS011;6232;48.094;11.288;2022-11-09T07:19:01;10.20;;;5.63;;
12332;SDS011;6232;48.094;11.288;2022-11-09T07:21:47;3.70;;;3.40;;
12332;SDS011;6232;48.094;11.288;2022-11-09T07:24:32;5.43;;;3.63;;
12332;SDS011;6232;48.094;11.288;2022-11-09T07:27:21;4.17;;;3.27;;
12332;SDS011;6232;48.094;11.288;2022-11-09T07:30:07;2.83;;;2.63;;
12332;SDS011;6232;48.094;11.288;2022-11-09T07:32:53;4.90;;;2.70;;
12332;SDS011;6232;48.094;11.288;2022-11-09T07:35:39;3.20;;;2.80;;
12332;SDS011;6232;48.094;11.288;2022-11-09T07:38:25;3.33;;;2.63;;
12332;SDS011;6232;48.094;11.288;2022-11-09T07:41:13;4.17;;;2.77;;
12332;SDS011;6232;48.094;11.288;2022-11-09T07:43:59;6.90;;;3.07;;
12332;SDS011;6232;48.094;11.288;2022-11-09T07:46:48;2.37;;;2.00;;
12332;SDS011;6232;48.094;11.288;2022-11-09T07:49:33;18.03;;;2.77;;
12332;SDS011;6232;48.094;11.288;2022-11-09T07:52:20;5.77;;;2.43;;
12332;SDS011;6232;48.094;11.288;2022-11-09T07:55:05;17.40;;;3.70;;
12332;SDS011;6232;48.094;11.288;2022-11-09T07:57:55;6.23;;;2.23;;
12332;SDS011;6232;48.094;11.288;2022-11-09T08:00:41;7.20;;;2.80;;
12332;SDS011;6232;48.094;11.288;2022-11-09T08:03:27;10.13;;;3.40;;
12332;SDS011;6232;48.094;11.288;2022-11-09T08:06:13;12.63;;;2.93;;
12332;SDS011;6232;48.094;11.288;2022-11-09T08:08:58;5.93;;;2.37;;
12332;SDS011;6232;48.094;11.288;2022-11-09T08:11:44;3.97;;;2.33;;
12332;SDS011;6232;48.094;11.288;2022-11-09T08:14:29;6.60;;;2.77;;
12332;SDS011;6232;48.094;11.288;2022-11-09T08:17:15;9.30;;;3.47;;
12332;SDS011;6232;48.094;11.288;2022-11-09T08:20:01;8.30;;;3.00;;
12332;SDS011;6232;48.094;11.288;2022-11-09T08:22:46;8.87;;;4.23;;
12332;SDS011;6232;48.094;11.288;2022-11-09T08:25:33;7.40;;;3.80;;
12332;SDS011;6232;48.094;11.288;2022-11-09T08:28:18;5.57;;;3.73;;
12332;SDS011;6232;48.094;11.288;2022-11-09T08:31:06;7.67;;;3.73;;
12332;SDS011;6232;48.094;11.288;2022-11-09T08:33:52;6.50;;;2.90;;
12332;SDS011;6232;48.094;11.288;2022-11-09T08:36:38;10.30;;;3.50;;
12332;SDS011;6232;48.094;11.288;2022-11-09T08:39:23;7.13;;;3.20;;
12332;SDS011;6232;48.094;11.288;2022-11-09T08:42:09;4.20;;;2.43;;
12332;SDS011;6232;48.094;11.288;2022-11-09T08:44:54;3.90;;;2.63;;
12332;SDS011;6232;48.094;11.288;2022-11-09T08:47:40;3.87;;;2.60;;
12332;SDS011;6232;48.094;11.288;2022-11-09T08:50:26;3.10;;;1.70;;
12332;SDS011;6232;48.094;11.288;2022-11-09T08:53:12;6.27;;;2.00;;
12332;SDS011;6232;48.094;11.288;2022-11-09T08:55:57;6.33;;;2.57;;
12332;SDS011;6232;48.094;11.288;2022-11-09T08:58:44;6.27;;;2.00;;
12332;SDS011;6232;48.094;11.288;2022-11-09T09:01:29;3.90;;;2.30;;
12332;SDS011;6232;48.094;11.288;2022-11-09T09:04:15;6.13;;;2.10;;
12332;SDS011;6232;48.094;11.288;2022-11-09T09:07:01;2.90;;;1.80;;
12332;SDS011;6232;48.094;11.288;2022-11-09T09:09:46;3.73;;;1.70;;
12332;SDS011;6232;48.094;11.288;2022-11-09T09:12:32;1.93;;;1.70;;
12332;SDS011;6232;48.094;11.288;2022-11-09T09:15:18;2.03;;;1.93;;
12332;SDS011;6232;48.094;11.288;2022-11-09T09:18:03;2.80;;;2.03;;
12332;SDS011;6232;48.094;11.288;2022-11-09T09:20:49;2.97;;;2.67;;
12332;SDS011;6232;48.094;11.288;2022-11-09T09:23:35;4.20;;;1.77;;
12332;SDS011;6232;48.094;11.288;2022-11-09T09:26:23;3.27;;;1.87;;
12332;SDS011;6232;48.094;11.288;2022-11-09T09:29:12;4.27;;;2.00;;
12332;SDS011;6232;48.094;11.288;2022-11-09T09:32:24;12.77;;;2.60;;
12332;SDS011;6232;48.094;11.288;2022-11-09T09:35:10;2.23;;;1.80;;
12332;SDS011;6232;48.094;11.288;2022-11-09T09:37:55;5.73;;;1.90;;
12332;SDS011;6232;48.094;11.288;2022-11-09T09:40:46;10.10;;;2.00;;
12332;SDS011;6232;48.094;11.288;2022-11-09T09:43:42;4.10;;;1.90;;
12332;SDS011;6232;48.094;11.288;2022-11-09T09:46:41;4.30;;;1.90;;
12332;SDS011;6232;48.094;11.288;2022-11-09T09:49:28;2.60;;;1.90;;
12332;SDS011;6232;48.094;11.288;2022-11-09T09:52:23;4.37;;;1.60;;
12332;SDS011;6232;48.094;11.288;2022-11-09T09:57:57;4.90;;;1.90;;
12332;SDS011;6232;48.094;11.288;2022-11-09T10:00:44;2.47;;;1.63;;
12332;SDS011;6232;48.094;11.288;2022-11-09T10:03:31;2.00;;;1.73;;
12332;SDS011;6232;48.094;11.288;2022-11-09T10:12:04;3.80;;;2.00;;
12332;SDS011;6232;48.094;11.288;2022-11-09T10:23:50;2.20;;;1.60;;
12332;SDS011;6232;48.094;11.288;2022-11-09T10:26:40;3.67;;;1.80;;
12332;SDS011;6232;48.094;11.288;2022-11-09T10:29:31;3.50;;;1.77;;
12332;SDS011;6232;48.094;11.288;2022-11-09T10:32:18;3.90;;;1.73;;
12332;SDS011;6232;48.094;11.288;2022-11-09T10:37:59;2.83;;;2.00;;
12332;SDS011;6232;48.094;11.288;2022-11-09T10:40:52;2.50;;;1.70;;
12332;SDS011;6232;48.094;11.288;2022-11-09T10:43:41;1.90;;;1.60;;
12332;SDS011;6232;48.094;11.288;2022-11-09T10:46:29;1.97;;;1.60;;
12332;SDS011;6232;48.094;11.288;2022-11-09T10:49:18;1.57;;;1.47;;
12332;SDS011;6232;48.094;11.288;2022-11-09T10:52:05;2.73;;;1.90;;
12332;SDS011;6232;48.094;11.288;2022-11-09T10:54:54;2.50;;;1.97;;
12332;SDS011;6232;48.094;11.288;2022-11-09T11:00:59;10.80;;;1.70;;
12332;SDS011;6232;48.094;11.288;2022-11-09T11:03:47;3.40;;;1.60;;
12332;SDS011;6232;48.094;11.288;2022-11-09T11:06:33;1.67;;;1.47;;
12332;SDS011;6232;48.094;11.288;2022-11-09T11:09:19;6.03;;;1.80;;
12332;SDS011;6232;48.094;11.288;2022-11-09T11:12:18;2.03;;;1.87;;
12332;SDS011;6232;48.094;11.288;2022-11-09T11:15:22;1.90;;;1.70;;
12332;SDS011;6232;48.094;11.288;2022-11-09T11:18:12;1.50;;;1.40;;
12332;SDS011;6232;48.094;11.288;2022-11-09T11:27:03;3.63;;;1.93;;
12332;SDS011;6232;48.094;11.288;2022-11-09T11:32:50;2.30;;;1.73;;
12332;SDS011;6232;48.094;11.288;2022-11-09T11:35:42;1.70;;;1.60;;
12332;SDS011;6232;48.094;11.288;2022-11-09T11:38:37;10.30;;;1.60;;
12332;SDS011;6232;48.094;11.288;2022-11-09T11:45:10;1.40;;;1.30;;
12332;SDS011;6232;48.094;11.288;2022-11-09T12:07:12;2.87;;;1.53;;
12332;SDS011;6232;48.094;11.288;2022-11-09T12:10:12;2.33;;;1.53;;
12332;SDS011;6232;48.094;11.288;2022-11-09T12:16:14;3.50;;;1.50;;
12332;SDS011;6232;48.094;11.288;2022-11-09T12:25:16;3.43;;;2.03;;
12332;SDS011;6232;48.094;11.288;2022-11-09T12:34:14;3.93;;;1.30;;
12332;SDS011;6232;48.094;11.288;2022-11-09T12:39:45;3.83;;;1.27;;
12332;SDS011;6232;48.094;11.288;2022-11-09T12:42:55;3.70;;;1.53;;
12332;SDS011;6232;48.094;11.288;2022-11-09T12:46:00;4.23;;;1.73;;
12332;SDS011;6232;48.094;11.288;2022-11-09T12:48:49;1.73;;;1.27;;
12332;SDS011;6232;48.094;11.288;2022-11-09T12:51:38;3.30;;;1.40;;
12332;SDS011;6232;48.094;11.288;2022-11-09T12:54:24;2.33;;;1.50;;
12332;SDS011;6232;48.094;11.288;2022-11-09T12:57:15;3.73;;;1.60;;
12332;SDS011;6232;48.094;11.288;2022-11-09T13:00:04;1.43;;;1.30;;
12332;SDS011;6232;48.094;11.288;2022-11-09T13:05:36;2.27;;;1.47;;
12332;SDS011;6232;48.094;11.288;2022-11-09T13:08:24;2.47;;;1.40;;
12332;SDS011;6232;48.094;11.288;2022-11-09T13:11:17;4.00;;;1.23;;
12332;SDS011;6232;48.094;11.288;2022-11-09T13:23:25;2.43;;;1.50;;
12332;SDS011;6232;48.094;11.288;2022-11-09T13:32:39;1.70;;;1.47;;
12332;SDS011;6232;48.094;11.288;2022-11-09T13:42:16;1.50;;;1.20;;
12332;SDS011;6232;48.094;11.288;2022-11-09T13:45:21;1.23;;;1.10;;
12332;SDS011;6232;48.094;11.288;2022-11-09T13:48:22;1.40;;;1.30;;
12332;SDS011;6232;48.094;11.288;2022-11-09T13:51:09;2.07;;;1.33;;
12332;SDS011;6232;48.094;11.288;2022-11-09T13:53:56;1.73;;;1.37;;
12332;SDS011;6232;48.094;11.288;2022-11-09T13:56:43;2.17;;;1.47;;
12332;SDS011;6232;48.094;11.288;2022-11-09T13:59:33;1.73;;;1.50;;
12332;SDS011;6232;48.094;11.288;2022-11-09T14:02:24;3.70;;;1.57;;
12332;SDS011;6232;48.094;11.288;2022-11-09T14:08:33;2.90;;;1.57;;
12332;SDS011;6232;48.094;11.288;2022-11-09T14:17:24;2.93;;;1.53;;
12332;SDS011;6232;48.094;11.288;2022-11-09T14:23:27;6.23;;;1.97;;
12332;SDS011;6232;48.094;11.288;2022-11-09T14:26:25;4.50;;;1.67;;
12332;SDS011;6232;48.094;11.288;2022-11-09T14:29:31;3.40;;;2.03;;
12332;SDS011;6232;48.094;11.288;2022-11-09T14:37:55;3.40;;;1.77;;
12332;SDS011;6232;48.094;11.288;2022-11-09T14:40:42;1.60;;;1.50;;
12332;SDS011;6232;48.094;11.288;2022-11-09T14:43:36;2.20;;;1.47;;
12332;SDS011;6232;48.094;11.288;2022-11-09T14:46:24;3.70;;;2.47;;
12332;SDS011;6232;48.094;11.288;2022-11-09T14:49:10;2.83;;;1.90;;
12332;SDS011;6232;48.094;11.288;2022-11-09T14:51:58;3.80;;;2.37;;
12332;SDS011;6232;48.094;11.288;2022-11-09T14:54:44;4.00;;;2.20;;
12332;SDS011;6232;48.094;11.288;2022-11-09T14:57:30;3.37;;;2.43;;
12332;SDS011;6232;48.094;11.288;2022-11-09T15:00:20;5.50;;;3.00;;
12332;SDS011;6232;48.094;11.288;2022-11-09T15:06:21;4.00;;;2.77;;
12332;SDS011;6232;48.094;11.288;2022-11-09T15:09:07;4.63;;;2.80;;
12332;SDS011;6232;48.094;11.288;2022-11-09T15:11:53;3.20;;;2.90;;
12332;SDS011;6232;48.094;11.288;2022-11-09T15:14:39;6.13;;;3.27;;
12332;SDS011;6232;48.094;11.288;2022-11-09T15:17:26;6.30;;;2.90;;
12332;SDS011;6232;48.094;11.288;2022-11-09T15:23:02;5.63;;;3.50;;
12332;SDS011;6232;48.094;11.288;2022-11-09T15:28:41;5.37;;;2.77;;
12332;SDS011;6232;48.094;11.288;2022-11-09T15:31:27;7.90;;;3.27;;
12332;SDS011;6232;48.094;11.288;2022-11-09T15:34:24;6.30;;;3.17;;
12332;SDS011;6232;48.094;11.288;2022-11-09T15:40:13;6.07;;;2.80;;
12332;SDS011;6232;48.094;11.288;2022-11-09T15:42:59;7.30;;;3.20;;
12332;SDS011;6232;48.094;11.288;2022-11-09T15:45:44;8.40;;;3.37;;
12332;SDS011;6232;48.094;11.288;2022-11-09T15:48:30;5.00;;;3.00;;
12332;SDS011;6232;48.094;11.288;2022-11-09T15:51:16;4.57;;;2.70;;
12332;SDS011;6232;48.094;11.288;2022-11-09T15:54:02;3.93;;;2.80;;
12332;SDS011;6232;48.094;11.288;2022-11-09T15:56:51;4.33;;;2.60;;
12332;SDS011;6232;48.094;11.288;2022-11-09T15:59:37;5.37;;;3.87;;
12332;SDS011;6232;48.094;11.288;2022-11-09T16:02:23;3.13;;;2.70;;
12332;SDS011;6232;48.094;11.288;2022-11-09T16:05:09;4.13;;;2.90;;
12332;SDS011;6232;48.094;11.288;2022-11-09T16:07:55;11.17;;;3.10;;
12332;SDS011;6232;48.094;11.288;2022-11-09T16:10:41;25.27;;;4.60;;
12332;SDS011;6232;48.094;11.288;2022-11-09T16:13:28;38.63;;;5.90;;
12332;SDS011;6232;48.094;11.288;2022-11-09T16:16:14;28.30;;;3.73;;
12332;SDS011;6232;48.094;11.288;2022-11-09T16:19:00;19.70;;;4.10;;
12332;SDS011;6232;48.094;11.288;2022-11-09T16:21:46;15.77;;;4.27;;
12332;SDS011;6232;48.094;11.288;2022-11-09T16:24:31;37.20;;;5.17;;
12332;SDS011;6232;48.094;11.288;2022-11-09T16:27:17;52.63;;;4.70;;
12332;SDS011;6232;48.094;11.288;2022-11-09T16:30:04;38.90;;;5.97;;
12332;SDS011;6232;48.094;11.288;2022-11-09T16:32:50;54.00;;;5.40;;
12332;SDS011;6232;48.094;11.288;2022-11-09T16:35:35;32.43;;;4.97;;
12332;SDS011;6232;48.094;11.288;2022-11-09T16:38:21;43.97;;;5.27;;
12332;SDS011;6232;48.094;11.288;2022-11-09T16:41:07;43.57;;;5.33;;
12332;SDS011;6232;48.094;11.288;2022-11-09T16:43:53;49.90;;;5.60;;
12332;SDS011;6232;48.094;11.288;2022-11-09T16:46:41;61.60;;;5.63;;
12332;SDS011;6232;48.094;11.288;2022-11-09T16:49:28;25.73;;;3.90;;
12332;SDS011;6232;48.094;11.288;2022-11-09T16:52:13;37.03;;;5.57;;
12332;SDS011;6232;48.094;11.288;2022-11-09T16:54:59;28.73;;;4.07;;
12332;SDS011;6232;48.094;11.288;2022-11-09T16:57:44;8.40;;;2.97;;
12332;SDS011;6232;48.094;11.288;2022-11-09T17:00:30;9.60;;;2.47;;
12332;SDS011;6232;48.094;11.288;2022-11-09T17:03:16;4.87;;;2.47;;
12332;SDS011;6232;48.094;11.288;2022-11-09T17:06:02;14.93;;;3.20;;
12332;SDS011;6232;48.094;11.288;2022-11-09T17:08:47;4.17;;;2.47;;
12332;SDS011;6232;48.094;11.288;2022-11-09T17:11:33;8.50;;;2.80;;
12332;SDS011;6232;48.094;11.288;2022-11-09T17:14:19;5.97;;;2.93;;
12332;SDS011;6232;48.094;11.288;2022-11-09T17:17:04;4.87;;;2.40;;
12332;SDS011;6232;48.094;11.288;2022-11-09T17:19:50;6.33;;;2.80;;
12332;SDS011;6232;48.094;11.288;2022-11-09T17:22:35;4.63;;;2.50;;
12332;SDS011;6232;48.094;11.288;2022-11-09T17:25:21;9.40;;;3.23;;
12332;SDS011;6232;48.094;11.288;2022-11-09T17:28:07;3.30;;;2.40;;
12332;SDS011;6232;48.094;11.288;2022-11-09T17:30:52;4.23;;;2.63;;
12332;SDS011;6232;48.094;11.288;2022-11-09T17:33:38;3.03;;;2.40;;
12332;SDS011;6232;48.094;11.288;2022-11-09T17:36:27;3.27;;;2.40;;
12332;SDS011;6232;48.094;11.288;2022-11-09T17:39:12;4.90;;;2.70;;
12332;SDS011;6232;48.094;11.288;2022-11-09T17:41:58;2.97;;;2.67;;
12332;SDS011;6232;48.094;11.288;2022-11-09T17:44:43;5.17;;;2.93;;
12332;SDS011;6232;48.094;11.288;2022-11-09T17:47:29;10.60;;;3.97;;
12332;SDS011;6232;48.094;11.288;2022-11-09T17:50:15;9.83;;;4.30;;
12332;SDS011;6232;48.094;11.288;2022-11-09T17:53:01;6.03;;;4.00;;
12332;SDS011;6232;48.094;11.288;2022-11-09T17:55:49;5.93;;;3.80;;
12332;SDS011;6232;48.094;11.288;2022-11-09T17:58:38;6.73;;;3.30;;
12332;SDS011;6232;48.094;11.288;2022-11-09T18:01:25;8.53;;;4.17;;
12332;SDS011;6232;48.094;11.288;2022-11-09T18:04:10;9.70;;;3.90;;
12332;SDS011;6232;48.094;11.288;2022-11-09T18:06:56;7.90;;;3.60;;
12332;SDS011;6232;48.094;11.288;2022-11-09T18:09:41;5.20;;;3.20;;
12332;SDS011;6232;48.094;11.288;2022-11-09T18:12:27;9.43;;;3.87;;
12332;SDS011;6232;48.094;11.288;2022-11-09T18:15:13;4.33;;;2.93;;
12332;SDS011;6232;48.094;11.288;2022-11-09T18:17:58;5.00;;;3.10;;
12332;SDS011;6232;48.094;11.288;2022-11-09T18:20:44;5.90;;;3.53;;
12332;SDS011;6232;48.094;11.288;2022-11-09T18:23:30;4.00;;;3.23;;
12332;SDS011;6232;48.094;11.288;2022-11-09T18:26:15;7.23;;;4.00;;
12332;SDS011;6232;48.094;11.288;2022-11-09T18:29:01;5.83;;;3.27;;
12332;SDS011;6232;48.094;11.288;2022-11-09T18:31:46;3.97;;;3.57;;
12332;SDS011;6232;48.094;11.288;2022-11-09T18:34:33;4.17;;;3.77;;
12332;SDS011;6232;48.094;11.288;2022-11-09T18:37:19;4.47;;;3.60;;
12332;SDS011;6232;48.094;11.288;2022-11-09T18:40:05;5.50;;;4.33;;
12332;SDS011;6232;48.094;11.288;2022-11-09T18:42:51;4.33;;;3.93;;
12332;SDS011;6232;48.094;11.288;2022-11-09T18:45:36;6.80;;;5.20;;
12332;SDS011;6232;48.094;11.288;2022-11-09T18:48:22;4.37;;;3.97;;
12332;SDS011;6232;48.094;11.288;2022-11-09T18:51:08;6.63;;;4.37;;
12332;SDS011;6232;48.094;11.288;2022-11-09T18:53:54;6.13;;;4.70;;